createdAt,value
2019-04-01T00:00:26.104Z,0.00
2019-04-01T00:01:26.084Z,0.00
2019-04-01T00:02:26.064Z,0.00
2019-04-01T00:03:26.044Z,0.00
2019-04-01T00:04:26.020Z,0.00
2019-04-01T00:05:26.007Z,0.00
2019-04-01T00:06:25.985Z,0.00
2019-04-01T00:07:26.002Z,0.00
2019-04-01T00:08:25.949Z,0.00
2019-04-01T00:09:25.926Z,0.00
2019-04-01T00:10:25.918Z,0.00
2019-04-01T00:11:25.894Z,0.00
2019-04-01T00:12:25.870Z,0.00
2019-04-01T00:13:25.882Z,0.00
2019-04-01T00:14:25.832Z,0.00
2019-04-01T00:15:25.815Z,0.00
2019-04-01T00:16:25.791Z,0.00
2019-04-01T00:17:25.777Z,0.00
2019-04-01T00:18:25.896Z,0.00
2019-04-01T00:19:25.735Z,0.00
2019-04-01T00:20:25.725Z,0.00
2019-04-01T00:21:25.706Z,0.00
2019-04-01T00:22:25.690Z,0.00
2019-04-01T00:23:25.671Z,0.00
2019-04-01T00:24:25.654Z,0.00
2019-04-01T00:25:25.628Z,0.00
2019-04-01T00:26:25.611Z,0.00
2019-04-01T00:27:25.591Z,0.00
2019-04-01T00:28:25.567Z,0.00
2019-04-01T00:29:25.577Z,0.00
2019-04-01T00:30:25.527Z,0.00
2019-04-01T00:31:25.517Z,0.00
2019-04-01T00:32:25.493Z,0.00
2019-04-01T00:33:25.468Z,0.00
2019-04-01T00:34:25.507Z,0.00
2019-04-01T00:35:25.433Z,0.00
2019-04-01T00:36:25.417Z,0.00
2019-04-01T00:37:25.396Z,0.00
2019-04-01T00:38:25.386Z,0.00
2019-04-01T00:39:25.359Z,0.00
2019-04-01T00:40:25.394Z,0.00
2019-04-01T00:41:25.314Z,0.00
2019-04-01T00:42:25.310Z,0.00
2019-04-01T00:43:25.286Z,0.00
2019-04-01T00:44:25.266Z,0.00
2019-04-01T00:45:25.239Z,0.00
2019-04-01T00:46:25.261Z,0.00
2019-04-01T00:47:25.213Z,0.00
2019-04-01T00:48:25.192Z,0.00
2019-04-01T00:49:25.169Z,0.00
2019-04-01T00:50:25.163Z,0.00
2019-04-01T00:51:25.129Z,0.00
2019-04-01T00:52:25.122Z,0.00
2019-04-01T00:53:25.091Z,0.00
2019-04-01T00:54:25.067Z,0.00
2019-04-01T00:55:25.083Z,0.00
2019-04-01T00:56:25.062Z,0.00
2019-04-01T00:57:25.023Z,0.00
2019-04-01T00:58:25.011Z,0.00
2019-04-01T00:59:24.980Z,0.00
2019-04-01T01:00:25.092Z,0.00
2019-04-01T01:01:24.938Z,0.00
2019-04-01T01:02:24.918Z,0.00
2019-04-01T01:03:24.903Z,0.00
2019-04-01T01:04:24.884Z,0.00
2019-04-01T01:05:24.861Z,0.00
2019-04-01T01:06:24.877Z,0.00
2019-04-01T01:07:24.828Z,0.00
2019-04-01T01:08:24.799Z,0.00
2019-04-01T01:09:24.793Z,0.00
2019-04-01T01:10:24.791Z,0.00
2019-04-01T01:11:24.747Z,0.00
2019-04-01T01:12:24.735Z,0.00
2019-04-01T01:13:24.705Z,0.00
2019-04-01T01:14:24.702Z,0.00
2019-04-01T01:15:24.673Z,0.00
2019-04-01T01:16:24.649Z,0.00
2019-04-01T01:17:24.633Z,0.00
2019-04-01T01:18:24.647Z,0.00
2019-04-01T01:19:24.589Z,0.00
2019-04-01T01:20:24.572Z,0.00
2019-04-01T01:21:24.587Z,0.00
2019-04-01T01:22:24.532Z,0.00
2019-04-01T01:23:24.548Z,0.00
2019-04-01T01:24:24.498Z,0.00
2019-04-01T01:25:24.476Z,0.00
2019-04-01T01:26:24.495Z,0.00
2019-04-01T01:27:24.443Z,0.00
2019-04-01T01:28:24.425Z,0.00
2019-04-01T01:29:24.438Z,0.00
2019-04-01T01:30:24.384Z,0.00
2019-04-01T01:31:24.363Z,0.00
2019-04-01T01:32:24.592Z,0.00
2019-04-01T01:33:24.325Z,0.00
2019-04-01T01:34:24.312Z,0.00
2019-04-01T01:35:24.282Z,0.00
2019-04-01T01:36:24.263Z,0.00
2019-04-01T01:37:24.256Z,0.00
2019-04-01T01:38:24.228Z,0.00
2019-04-01T01:39:24.238Z,0.00
2019-04-01T01:40:24.192Z,0.00
2019-04-01T01:41:24.170Z,0.00
2019-04-01T01:42:24.152Z,0.00
2019-04-01T01:43:24.136Z,0.00
2019-04-01T01:44:24.126Z,0.00
2019-04-01T01:45:24.130Z,0.00
2019-04-01T01:46:24.074Z,0.00
2019-04-01T01:47:24.051Z,0.00
2019-04-01T01:48:24.039Z,0.00
2019-04-01T01:49:24.021Z,0.00
2019-04-01T01:50:24.035Z,0.00
2019-04-01T01:51:23.978Z,0.00
2019-04-01T01:52:23.970Z,0.00
2019-04-01T01:53:23.938Z,0.00
2019-04-01T01:54:23.925Z,0.00
2019-04-01T01:55:24.055Z,0.00
2019-04-01T01:56:23.881Z,0.00
2019-04-01T01:57:23.859Z,0.00
2019-04-01T01:58:23.842Z,0.00
2019-04-01T01:59:23.824Z,0.00
2019-04-01T02:00:23.804Z,0.00
2019-04-01T02:01:23.821Z,0.00
2019-04-01T02:02:24.818Z,0.00
2019-04-01T02:03:23.747Z,0.00
2019-04-01T02:04:23.725Z,0.00
2019-04-01T02:05:23.739Z,0.00
2019-04-01T02:06:23.715Z,0.00
2019-04-01T02:07:23.733Z,0.00
2019-04-01T02:08:23.649Z,0.00
2019-04-01T02:09:23.637Z,0.00
2019-04-01T02:10:23.614Z,0.00
2019-04-01T02:11:23.595Z,0.00
2019-04-01T02:12:23.570Z,0.00
2019-04-01T02:13:23.587Z,0.00
2019-04-01T02:14:23.534Z,0.00
2019-04-01T02:15:23.509Z,0.00
2019-04-01T02:16:23.503Z,0.00
2019-04-01T02:17:23.503Z,0.00
2019-04-01T02:18:23.461Z,0.00
2019-04-01T02:19:23.438Z,0.00
2019-04-01T02:20:23.417Z,0.00
2019-04-01T02:21:23.433Z,0.00
2019-04-01T02:22:23.411Z,0.00
2019-04-01T02:23:23.360Z,0.00
2019-04-01T02:24:23.341Z,0.00
2019-04-01T02:25:23.329Z,0.00
2019-04-01T02:26:23.340Z,0.00
2019-04-01T02:27:23.296Z,0.00
2019-04-01T02:28:23.274Z,0.00
2019-04-01T02:29:23.250Z,0.00
2019-04-01T02:30:23.234Z,0.00
2019-04-01T02:31:23.234Z,0.00
2019-04-01T02:32:23.213Z,0.00
2019-04-01T02:33:23.171Z,0.00
2019-04-01T02:34:23.147Z,0.00
2019-04-01T02:35:23.138Z,0.00
2019-04-01T02:36:23.111Z,0.00
2019-04-01T02:37:23.109Z,0.00
2019-04-01T02:38:23.178Z,0.00
2019-04-01T02:39:23.066Z,0.00
2019-04-01T02:40:23.032Z,0.00
2019-04-01T02:41:23.014Z,0.00
2019-04-01T02:42:23.021Z,0.00
2019-04-01T02:43:22.972Z,0.00
2019-04-01T02:44:22.960Z,0.00
2019-04-01T02:45:22.940Z,0.00
2019-04-01T02:46:22.915Z,0.00
2019-04-01T02:47:22.929Z,0.00
2019-04-01T02:48:22.882Z,0.00
2019-04-01T02:49:22.854Z,0.00
2019-04-01T02:50:22.862Z,0.00
2019-04-01T02:51:22.815Z,0.00
2019-04-01T02:52:22.807Z,0.00
2019-04-01T02:53:22.807Z,0.00
2019-04-01T02:54:22.767Z,0.00
2019-04-01T02:55:22.746Z,0.00
2019-04-01T02:56:22.718Z,0.00
2019-04-01T02:57:22.700Z,0.00
2019-04-01T02:58:22.720Z,0.00
2019-04-01T02:59:22.673Z,0.00
2019-04-01T03:00:22.701Z,0.00
2019-04-01T03:01:22.620Z,0.00
2019-04-01T03:02:22.846Z,0.00
2019-04-01T03:03:22.581Z,0.00
2019-04-01T03:04:22.568Z,0.00
2019-04-01T03:05:22.546Z,0.00
2019-04-01T03:06:22.532Z,0.00
2019-04-01T03:07:22.544Z,0.00
2019-04-01T03:08:22.518Z,0.00
2019-04-01T03:09:22.471Z,0.00
2019-04-01T03:10:22.462Z,0.00
2019-04-01T03:11:22.427Z,0.00
2019-04-01T03:12:22.457Z,0.00
2019-04-01T03:13:22.427Z,0.00
2019-04-01T03:14:22.382Z,0.00
2019-04-01T03:15:22.389Z,0.00
2019-04-01T03:16:22.343Z,0.00
2019-04-01T03:17:22.326Z,0.00
2019-04-01T03:18:22.291Z,0.00
2019-04-01T03:19:22.281Z,0.00
2019-04-01T03:20:22.288Z,0.00
2019-04-01T03:21:22.238Z,0.00
2019-04-01T03:22:22.223Z,0.00
2019-04-01T03:23:22.194Z,0.00
2019-04-01T03:24:22.192Z,0.00
2019-04-01T03:25:22.191Z,0.00
2019-04-01T03:26:22.140Z,0.00
2019-04-01T03:27:22.151Z,0.00
2019-04-01T03:28:22.110Z,0.00
2019-04-01T03:29:22.079Z,0.00
2019-04-01T03:30:22.081Z,0.00
2019-04-01T03:31:22.043Z,0.00
2019-04-01T03:32:22.058Z,0.00
2019-04-01T03:33:22.006Z,0.00
2019-04-01T03:34:21.982Z,0.00
2019-04-01T03:35:21.998Z,0.00
2019-04-01T03:36:21.942Z,0.00
2019-04-01T03:37:21.961Z,0.00
2019-04-01T03:38:21.907Z,0.00
2019-04-01T03:39:21.886Z,0.00
2019-04-01T03:40:21.874Z,0.00
2019-04-01T03:41:21.906Z,0.00
2019-04-01T03:42:21.950Z,0.00
2019-04-01T03:43:21.811Z,0.00
2019-04-01T03:44:21.786Z,0.00
2019-04-01T03:45:21.772Z,0.00
2019-04-01T03:46:21.744Z,0.00
2019-04-01T03:47:21.767Z,0.00
2019-04-01T03:48:21.713Z,0.00
2019-04-01T03:49:21.695Z,0.00
2019-04-01T03:50:21.684Z,0.00
2019-04-01T03:51:21.657Z,0.00
2019-04-01T03:52:21.673Z,0.00
2019-04-01T03:53:21.649Z,0.00
2019-04-01T03:54:21.593Z,0.00
2019-04-01T03:55:21.611Z,0.00
2019-04-01T03:56:21.556Z,0.00
2019-04-01T03:57:21.542Z,0.00
2019-04-01T03:58:21.553Z,0.00
2019-04-01T03:59:21.514Z,0.00
2019-04-01T04:00:21.499Z,0.00
2019-04-01T04:01:21.461Z,0.00
2019-04-01T04:02:21.451Z,0.00
2019-04-01T04:03:21.419Z,0.00
2019-04-01T04:04:21.409Z,0.00
2019-04-01T04:05:21.410Z,0.00
2019-04-01T04:06:21.356Z,0.00
2019-04-01T04:07:21.340Z,0.00
2019-04-01T04:08:21.322Z,0.00
2019-04-01T04:09:21.309Z,0.00
2019-04-01T04:10:21.317Z,0.00
2019-04-01T04:11:21.258Z,0.00
2019-04-01T04:12:21.251Z,0.00
2019-04-01T04:13:21.251Z,0.00
2019-04-01T04:14:21.202Z,0.00
2019-04-01T04:15:21.217Z,0.00
2019-04-01T04:16:21.163Z,0.00
2019-04-01T04:17:21.142Z,0.00
2019-04-01T04:18:21.128Z,0.00
2019-04-01T04:19:21.114Z,0.00
2019-04-01T04:20:21.147Z,0.00
2019-04-01T04:21:23.932Z,0.00
2019-04-01T04:22:21.062Z,0.00
2019-04-01T04:23:21.031Z,0.00
2019-04-01T04:24:21.016Z,0.00
2019-04-01T04:25:20.985Z,0.00
2019-04-01T04:26:21.000Z,0.00
2019-04-01T04:27:20.947Z,0.00
2019-04-01T04:28:20.935Z,0.00
2019-04-01T04:29:20.918Z,0.00
2019-04-01T04:30:20.921Z,0.00
2019-04-01T04:31:20.870Z,0.00
2019-04-01T04:32:20.855Z,0.00
2019-04-01T04:33:20.838Z,0.00
2019-04-01T04:34:20.816Z,0.00
2019-04-01T04:35:20.827Z,0.00
2019-04-01T04:36:20.824Z,0.00
2019-04-01T04:37:20.766Z,0.00
2019-04-01T04:38:20.754Z,0.00
2019-04-01T04:39:20.711Z,0.00
2019-04-01T04:40:20.693Z,0.00
2019-04-01T04:41:20.679Z,0.00
2019-04-01T04:42:20.689Z,0.00
2019-04-01T04:43:20.633Z,0.00
2019-04-01T04:44:20.624Z,0.00
2019-04-01T04:45:20.606Z,0.00
2019-04-01T04:46:21.289Z,0.00
2019-04-01T04:47:20.594Z,0.00
2019-04-01T04:48:20.539Z,0.00
2019-04-01T04:49:20.527Z,0.00
2019-04-01T04:50:20.504Z,0.00
2019-04-01T04:51:20.489Z,0.00
2019-04-01T04:52:20.497Z,0.00
2019-04-01T04:53:20.456Z,0.00
2019-04-01T04:54:20.423Z,0.00
2019-04-01T04:55:20.403Z,0.00
2019-04-01T04:56:20.389Z,0.00
2019-04-01T04:57:20.599Z,0.00
2019-04-01T04:58:20.370Z,0.00
2019-04-01T04:59:20.333Z,0.00
2019-04-01T05:00:20.309Z,0.00
2019-04-01T05:01:20.284Z,0.00
2019-04-01T05:02:20.269Z,0.00
2019-04-01T05:03:20.278Z,0.00
2019-04-01T05:04:20.275Z,0.00
2019-04-01T05:05:20.210Z,0.00
2019-04-01T05:06:20.194Z,0.00
2019-04-01T05:07:20.175Z,0.00
2019-04-01T05:08:20.156Z,0.00
2019-04-01T05:09:20.127Z,0.00
2019-04-01T05:10:20.139Z,0.00
2019-04-01T05:11:20.186Z,5.63
2019-04-01T05:12:20.081Z,5.63
2019-04-01T05:13:20.062Z,5.63
2019-04-01T05:14:20.036Z,5.63
2019-04-01T05:15:20.045Z,5.63
2019-04-01T05:16:19.989Z,5.63
2019-04-01T05:17:19.980Z,5.63
2019-04-01T05:18:19.964Z,5.63
2019-04-01T05:19:19.966Z,5.63
2019-04-01T05:20:19.914Z,5.63
2019-04-01T05:21:19.899Z,5.63
2019-04-01T05:22:19.911Z,5.63
2019-04-01T05:23:19.865Z,5.63
2019-04-01T05:24:19.840Z,5.63
2019-04-01T05:25:19.880Z,11.25
2019-04-01T05:26:19.851Z,11.25
2019-04-01T05:27:19.777Z,11.25
2019-04-01T05:28:19.763Z,11.25
2019-04-01T05:29:19.737Z,11.25
2019-04-01T05:30:19.716Z,11.25
2019-04-01T05:31:19.736Z,11.25
2019-04-01T05:32:19.689Z,11.25
2019-04-01T05:33:19.660Z,11.25
2019-04-01T05:34:19.649Z,11.25
2019-04-01T05:35:19.622Z,11.25
2019-04-01T05:36:19.637Z,11.25
2019-04-01T05:37:19.657Z,16.88
2019-04-01T05:38:19.567Z,16.88
2019-04-01T05:39:19.545Z,16.88
2019-04-01T05:40:19.526Z,16.88
2019-04-01T05:41:19.500Z,16.88
2019-04-01T05:42:19.513Z,16.88
2019-04-01T05:43:19.464Z,16.88
2019-04-01T05:44:19.480Z,16.88
2019-04-01T05:45:19.437Z,16.88
2019-04-01T05:46:19.404Z,16.88
2019-04-01T05:47:19.393Z,16.88
2019-04-01T05:48:19.369Z,22.50
2019-04-01T05:49:19.376Z,22.50
2019-04-01T05:50:19.327Z,22.50
2019-04-01T05:51:19.311Z,22.50
2019-04-01T05:52:19.291Z,22.50
2019-04-01T05:53:19.298Z,22.50
2019-04-01T05:54:19.247Z,22.50
2019-04-01T05:55:19.261Z,22.50
2019-04-01T05:56:19.225Z,22.50
2019-04-01T05:57:19.195Z,22.50
2019-04-01T05:58:19.175Z,22.50
2019-04-01T05:59:19.162Z,22.50
2019-04-01T06:00:20.856Z,22.50
2019-04-01T06:01:19.126Z,28.13
2019-04-01T06:02:19.100Z,28.13
2019-04-01T06:03:19.103Z,28.13
2019-04-01T06:04:19.063Z,28.13
2019-04-01T06:05:19.071Z,28.13
2019-04-01T06:06:19.017Z,28.13
2019-04-01T06:07:18.999Z,28.13
2019-04-01T06:08:18.979Z,28.13
2019-04-01T06:09:18.967Z,28.13
2019-04-01T06:10:18.974Z,28.13
2019-04-01T06:11:18.928Z,28.13
2019-04-01T06:12:18.909Z,28.13
2019-04-01T06:13:18.889Z,28.13
2019-04-01T06:14:18.863Z,28.13
2019-04-01T06:15:18.843Z,28.13
2019-04-01T06:16:18.843Z,28.13
2019-04-01T06:17:18.811Z,33.75
2019-04-01T06:18:18.784Z,33.75
2019-04-01T06:19:18.798Z,33.75
2019-04-01T06:20:18.746Z,33.75
2019-04-01T06:21:18.780Z,33.75
2019-04-01T06:22:18.707Z,33.75
2019-04-01T06:23:18.699Z,33.75
2019-04-01T06:24:18.684Z,33.75
2019-04-01T06:25:18.656Z,33.75
2019-04-01T06:26:18.628Z,33.75
2019-04-01T06:27:18.641Z,33.75
2019-04-01T06:28:18.599Z,33.75
2019-04-01T06:29:18.578Z,33.75
2019-04-01T06:30:18.570Z,33.75
2019-04-01T06:31:18.569Z,33.75
2019-04-01T06:32:18.526Z,33.75
2019-04-01T06:33:18.506Z,33.75
2019-04-01T06:34:18.488Z,33.75
2019-04-01T06:35:18.463Z,33.75
2019-04-01T06:36:18.481Z,33.75
2019-04-01T06:37:18.440Z,33.75
2019-04-01T06:38:18.412Z,33.75
2019-04-01T06:39:18.407Z,39.38
2019-04-01T06:40:18.410Z,39.38
2019-04-01T06:41:18.356Z,39.38
2019-04-01T06:42:18.369Z,39.38
2019-04-01T06:43:18.313Z,39.38
2019-04-01T06:44:18.333Z,39.38
2019-04-01T06:45:18.275Z,39.38
2019-04-01T06:46:18.287Z,39.38
2019-04-01T06:47:18.348Z,39.38
2019-04-01T06:48:18.233Z,39.38
2019-04-01T06:49:20.365Z,39.38
2019-04-01T06:50:18.183Z,39.38
2019-04-01T06:51:18.212Z,39.38
2019-04-01T06:52:18.146Z,39.38
2019-04-01T06:53:18.135Z,39.38
2019-04-01T06:54:18.144Z,39.38
2019-04-01T06:55:18.084Z,39.38
2019-04-01T06:56:18.070Z,39.38
2019-04-01T06:57:18.055Z,39.38
2019-04-01T06:58:18.048Z,39.38
2019-04-01T06:59:18.009Z,39.38
2019-04-01T07:00:17.993Z,39.38
2019-04-01T07:01:17.985Z,39.38
2019-04-01T07:02:17.954Z,39.38
2019-04-01T07:03:18.753Z,39.38
2019-04-01T07:04:17.924Z,39.38
2019-04-01T07:05:17.896Z,39.38
2019-04-01T07:06:17.884Z,39.38
2019-04-01T07:07:19.478Z,39.38
2019-04-01T07:08:17.880Z,39.38
2019-04-01T07:09:17.861Z,45.00
2019-04-01T07:10:17.805Z,45.00
2019-04-01T07:11:17.880Z,45.00
2019-04-01T07:12:17.787Z,45.00
2019-04-01T07:13:17.768Z,45.00
2019-04-01T07:14:17.756Z,45.00
2019-04-01T07:15:17.937Z,45.00
2019-04-01T07:16:17.703Z,45.00
2019-04-01T07:17:17.673Z,45.00
2019-04-01T07:18:17.670Z,45.00
2019-04-01T07:19:17.663Z,45.00
2019-04-01T07:20:17.651Z,45.00
2019-04-01T07:21:17.646Z,45.00
2019-04-01T07:22:17.586Z,45.00
2019-04-01T07:23:17.574Z,45.00
2019-04-01T07:24:17.558Z,45.00
2019-04-01T07:25:17.597Z,45.00
2019-04-01T07:26:17.515Z,45.00
2019-04-01T07:27:17.495Z,45.00
2019-04-01T07:28:17.487Z,45.00
2019-04-01T07:29:17.462Z,45.00
2019-04-01T07:30:17.540Z,50.63
2019-04-01T07:31:17.431Z,50.63
2019-04-01T07:32:17.410Z,50.63
2019-04-01T07:33:17.407Z,50.63
2019-04-01T07:34:17.372Z,50.63
2019-04-01T07:35:17.362Z,50.63
2019-04-01T07:36:17.357Z,50.63
2019-04-01T07:37:17.325Z,50.63
2019-04-01T07:38:17.303Z,50.63
2019-04-01T07:39:17.290Z,50.63
2019-04-01T07:40:17.259Z,50.63
2019-04-01T07:41:17.315Z,50.63
2019-04-01T07:42:17.223Z,56.25
2019-04-01T07:43:17.206Z,56.25
2019-04-01T07:44:17.191Z,56.25
2019-04-01T07:45:17.178Z,50.63
2019-04-01T07:46:17.197Z,56.25
2019-04-01T07:47:17.138Z,50.63
2019-04-01T07:48:17.125Z,50.63
2019-04-01T07:49:17.102Z,50.63
2019-04-01T07:50:17.078Z,56.25
2019-04-01T07:51:17.104Z,50.63
2019-04-01T07:52:17.065Z,50.63
2019-04-01T07:53:17.125Z,50.63
2019-04-01T07:54:18.630Z,50.63
2019-04-01T07:55:16.994Z,50.63
2019-04-01T07:56:17.012Z,56.25
2019-04-01T07:57:17.028Z,56.25
2019-04-01T07:58:16.947Z,56.25
2019-04-01T07:59:16.927Z,56.25
2019-04-01T08:00:16.911Z,56.25
2019-04-01T08:01:16.892Z,61.88
2019-04-01T08:02:17.597Z,61.88
2019-04-01T08:03:17.685Z,61.88
2019-04-01T08:04:17.505Z,61.88
2019-04-01T08:05:16.822Z,61.88
2019-04-01T08:06:16.807Z,67.50
2019-04-01T08:07:16.876Z,67.50
2019-04-01T08:08:16.807Z,67.50
2019-04-01T08:09:16.759Z,67.50
2019-04-01T08:10:16.737Z,61.88
2019-04-01T08:11:17.815Z,56.25
2019-04-01T08:12:17.578Z,61.88
2019-04-01T08:13:17.939Z,61.88
2019-04-01T08:14:17.360Z,67.50
2019-04-01T08:15:17.312Z,67.50
2019-04-01T08:16:17.264Z,67.50
2019-04-01T08:17:17.331Z,73.13
2019-04-01T08:18:17.846Z,73.13
2019-04-01T08:19:17.300Z,73.13
2019-04-01T08:20:17.162Z,84.38
2019-04-01T08:21:17.284Z,90.00
2019-04-01T08:22:17.259Z,84.38
2019-04-01T08:23:17.612Z,101.25
2019-04-01T08:24:17.333Z,101.25
2019-04-01T08:25:17.295Z,84.38
2019-04-01T08:26:17.307Z,84.38
2019-04-01T08:27:17.105Z,95.63
2019-04-01T08:28:17.280Z,84.38
2019-04-01T08:29:29.415Z,90.00
2019-04-01T08:30:17.129Z,84.38
2019-04-01T08:31:17.181Z,112.50
2019-04-01T08:32:17.098Z,101.25
2019-04-01T08:33:17.150Z,84.38
2019-04-01T08:34:17.522Z,84.38
2019-04-01T08:35:17.092Z,73.13
2019-04-01T08:36:16.897Z,90.00
2019-04-01T08:37:16.833Z,78.75
2019-04-01T08:38:16.905Z,73.13
2019-04-01T08:39:16.954Z,78.75
2019-04-01T08:40:16.965Z,106.88
2019-04-01T08:41:17.352Z,129.38
2019-04-01T08:42:16.836Z,118.13
2019-04-01T08:43:16.886Z,106.88
2019-04-01T08:44:16.902Z,112.50
2019-04-01T08:45:16.876Z,123.75
2019-04-01T08:46:17.338Z,118.13
2019-04-01T08:47:16.846Z,84.38
2019-04-01T08:48:16.869Z,90.00
2019-04-01T08:49:16.783Z,106.88
2019-04-01T08:50:16.781Z,112.50
2019-04-01T08:51:17.121Z,135.00
2019-04-01T08:52:16.773Z,123.75
2019-04-01T08:53:16.750Z,146.25
2019-04-01T08:54:16.743Z,112.50
2019-04-01T08:55:16.780Z,84.38
2019-04-01T08:56:17.075Z,95.63
2019-04-01T08:57:17.009Z,101.25
2019-04-01T08:58:16.647Z,84.38
2019-04-01T08:59:16.606Z,73.13
2019-04-01T09:00:16.639Z,73.13
2019-04-01T09:01:16.649Z,78.75
2019-04-01T09:02:18.227Z,84.38
2019-04-01T09:03:16.537Z,84.38
2019-04-01T09:04:16.682Z,95.63
2019-04-01T09:05:16.485Z,106.88
2019-04-01T09:06:16.547Z,90.00
2019-04-01T09:07:16.550Z,90.00
2019-04-01T09:08:15.858Z,90.00
2019-04-01T09:09:15.828Z,84.38
2019-04-01T09:10:15.813Z,90.00
2019-04-01T09:11:15.794Z,118.13
2019-04-01T09:12:15.834Z,135.00
2019-04-01T09:13:15.766Z,129.38
2019-04-01T09:14:15.753Z,163.13
2019-04-01T09:15:15.741Z,146.25
2019-04-01T09:16:15.737Z,135.00
2019-04-01T09:17:15.712Z,140.63
2019-04-01T09:18:15.755Z,135.00
2019-04-01T09:19:15.684Z,157.50
2019-04-01T09:20:15.666Z,140.63
2019-04-01T09:21:15.651Z,135.00
2019-04-01T09:22:15.650Z,140.63
2019-04-01T09:23:15.669Z,174.38
2019-04-01T09:24:15.616Z,185.63
2019-04-01T09:25:15.602Z,185.63
2019-04-01T09:26:15.590Z,191.25
2019-04-01T09:27:15.574Z,185.63
2019-04-01T09:28:15.584Z,191.25
2019-04-01T09:29:15.550Z,191.25
2019-04-01T09:30:18.475Z,185.63
2019-04-01T09:31:15.534Z,185.63
2019-04-01T09:32:15.522Z,180.00
2019-04-01T09:33:15.538Z,180.00
2019-04-01T09:34:15.499Z,185.63
2019-04-01T09:35:15.484Z,196.88
2019-04-01T09:36:15.464Z,213.75
2019-04-01T09:37:15.454Z,225.00
2019-04-01T09:38:15.482Z,225.00
2019-04-01T09:39:15.443Z,219.38
2019-04-01T09:40:15.424Z,202.50
2019-04-01T09:41:15.431Z,185.63
2019-04-01T09:42:15.399Z,180.00
2019-04-01T09:43:15.408Z,163.13
2019-04-01T09:44:15.381Z,168.75
2019-04-01T09:45:15.365Z,157.50
2019-04-01T09:46:15.362Z,146.25
2019-04-01T09:47:15.341Z,146.25
2019-04-01T09:48:15.359Z,146.25
2019-04-01T09:49:15.325Z,151.88
2019-04-01T09:50:15.306Z,135.00
2019-04-01T09:51:15.307Z,135.00
2019-04-01T09:52:15.295Z,129.38
2019-04-01T09:53:15.313Z,123.75
2019-04-01T09:54:15.272Z,129.38
2019-04-01T09:55:15.259Z,101.25
2019-04-01T09:56:15.245Z,90.00
2019-04-01T09:57:17.873Z,95.63
2019-04-01T09:58:15.219Z,95.63
2019-04-01T09:59:15.210Z,106.88
2019-04-01T10:00:15.193Z,123.75
2019-04-01T10:01:15.189Z,135.00
2019-04-01T10:02:15.171Z,168.75
2019-04-01T10:03:15.209Z,258.75
2019-04-01T10:04:15.143Z,354.38
2019-04-01T10:05:15.133Z,326.25
2019-04-01T10:06:15.130Z,405.00
2019-04-01T10:07:15.102Z,309.38
2019-04-01T10:08:15.092Z,247.50
2019-04-01T10:09:15.095Z,286.88
2019-04-01T10:10:15.069Z,264.38
2019-04-01T10:11:15.057Z,309.38
2019-04-01T10:12:15.058Z,376.88
2019-04-01T10:13:15.058Z,421.88
2019-04-01T10:14:15.042Z,438.75
2019-04-01T10:15:15.003Z,495.00
2019-04-01T10:16:15.000Z,663.75
2019-04-01T10:17:14.986Z,703.13
2019-04-01T10:18:15.000Z,472.50
2019-04-01T10:19:14.960Z,337.50
2019-04-01T10:20:14.938Z,258.75
2019-04-01T10:21:14.923Z,331.88
2019-04-01T10:22:14.915Z,382.50
2019-04-01T10:23:14.928Z,635.63
2019-04-01T10:24:14.889Z,950.63
2019-04-01T10:25:14.881Z,928.13
2019-04-01T10:26:14.873Z,478.13
2019-04-01T10:27:14.854Z,866.25
2019-04-01T10:28:14.912Z,1254.38
2019-04-01T10:29:14.829Z,1096.88
2019-04-01T10:30:14.817Z,466.88
2019-04-01T10:31:14.808Z,337.50
2019-04-01T10:32:14.790Z,281.25
2019-04-01T10:33:14.790Z,326.25
2019-04-01T10:34:14.772Z,410.63
2019-04-01T10:35:14.763Z,371.25
2019-04-01T10:36:14.746Z,399.38
2019-04-01T10:37:14.739Z,483.75
2019-04-01T10:38:14.727Z,534.38
2019-04-01T10:39:14.733Z,590.63
2019-04-01T10:40:14.701Z,815.63
2019-04-01T10:41:14.698Z,562.50
2019-04-01T10:42:14.674Z,1001.25
2019-04-01T10:43:14.673Z,1012.50
2019-04-01T10:44:14.668Z,1220.63
2019-04-01T10:45:14.659Z,1091.25
2019-04-01T10:46:14.630Z,973.13
2019-04-01T10:47:14.632Z,517.50
2019-04-01T10:48:14.688Z,607.50
2019-04-01T10:49:14.620Z,472.50
2019-04-01T10:50:14.791Z,388.13
2019-04-01T10:51:14.588Z,483.75
2019-04-01T10:52:14.638Z,663.75
2019-04-01T10:53:14.620Z,534.38
2019-04-01T10:54:14.643Z,691.88
2019-04-01T10:55:14.589Z,461.25
2019-04-01T10:56:14.535Z,157.50
2019-04-01T10:57:14.572Z,157.50
2019-04-01T10:58:14.523Z,118.13
2019-04-01T10:59:14.525Z,106.88
2019-04-01T11:00:14.603Z,416.25
2019-04-01T11:01:14.513Z,455.63
2019-04-01T11:02:18.201Z,348.75
2019-04-01T11:03:14.472Z,331.88
2019-04-01T11:04:14.460Z,613.13
2019-04-01T11:05:14.492Z,708.75
2019-04-01T11:06:14.442Z,1170.00
2019-04-01T11:07:14.444Z,1108.13
2019-04-01T11:08:14.410Z,832.50
2019-04-01T11:09:14.412Z,815.63
2019-04-01T11:10:14.429Z,945.00
2019-04-01T11:11:14.379Z,1181.25
2019-04-01T11:12:14.393Z,1096.88
2019-04-01T11:13:14.351Z,1175.63
2019-04-01T11:14:14.358Z,1170.00
2019-04-01T11:15:15.793Z,1018.13
2019-04-01T11:16:14.328Z,618.75
2019-04-01T11:17:15.271Z,613.13
2019-04-01T11:18:14.307Z,365.63
2019-04-01T11:19:14.304Z,320.63
2019-04-01T11:20:14.291Z,568.13
2019-04-01T11:21:14.281Z,630.00
2019-04-01T11:22:14.279Z,466.88
2019-04-01T11:23:14.267Z,478.13
2019-04-01T11:24:14.257Z,849.38
2019-04-01T11:25:14.258Z,1029.38
2019-04-01T11:26:14.266Z,967.50
2019-04-01T11:27:14.214Z,472.50
2019-04-01T11:28:14.212Z,298.13
2019-04-01T11:29:14.195Z,354.38
2019-04-01T11:30:14.325Z,421.88
2019-04-01T11:31:14.251Z,421.88
2019-04-01T11:32:14.206Z,315.00
2019-04-01T11:33:14.198Z,253.13
2019-04-01T11:34:14.169Z,534.38
2019-04-01T11:35:14.218Z,596.25
2019-04-01T11:36:14.301Z,585.00
2019-04-01T11:37:14.138Z,838.13
2019-04-01T11:38:14.142Z,579.38
2019-04-01T11:39:14.168Z,399.38
2019-04-01T11:40:14.167Z,365.63
2019-04-01T11:41:14.097Z,298.13
2019-04-01T11:42:14.261Z,225.00
2019-04-01T11:43:14.071Z,343.13
2019-04-01T11:44:14.116Z,534.38
2019-04-01T11:45:14.139Z,478.13
2019-04-01T11:46:14.086Z,405.00
2019-04-01T11:47:14.066Z,421.88
2019-04-01T11:48:14.067Z,511.88
2019-04-01T11:49:14.002Z,466.88
2019-04-01T11:50:13.995Z,551.25
2019-04-01T11:51:14.029Z,658.13
2019-04-01T11:52:15.686Z,607.50
2019-04-01T11:53:13.955Z,731.25
2019-04-01T11:54:13.948Z,843.75
2019-04-01T11:55:13.937Z,894.38
2019-04-01T11:56:13.931Z,1080.00
2019-04-01T11:57:13.911Z,1338.75
2019-04-01T11:58:13.961Z,1333.13
2019-04-01T11:59:13.894Z,1080.00
2019-04-01T12:00:13.889Z,1018.13
2019-04-01T12:01:13.878Z,1063.13
2019-04-01T12:02:13.891Z,1119.38
2019-04-01T12:03:13.859Z,1327.50
2019-04-01T12:04:13.850Z,1395.00
2019-04-01T12:05:13.828Z,2874.38
2019-04-01T12:06:13.822Z,2874.38
2019-04-01T12:07:13.811Z,2874.38
2019-04-01T12:08:13.805Z,2874.38
2019-04-01T12:09:13.930Z,2874.38
2019-04-01T12:10:13.784Z,2874.38
2019-04-01T12:11:13.782Z,2874.38
2019-04-01T12:12:23.613Z,2874.38
2019-04-01T12:13:13.778Z,1417.50
2019-04-01T12:14:13.754Z,2874.38
2019-04-01T12:15:13.817Z,2874.38
2019-04-01T12:16:13.744Z,2874.38
2019-04-01T12:17:13.742Z,2874.38
2019-04-01T12:18:13.733Z,2874.38
2019-04-01T12:19:13.727Z,2874.38
2019-04-01T12:20:13.729Z,2874.38
2019-04-01T12:21:13.723Z,2874.38
2019-04-01T12:22:13.751Z,2874.38
2019-04-01T12:23:14.448Z,2874.38
2019-04-01T12:24:13.709Z,1265.63
2019-04-01T12:25:13.735Z,1130.63
2019-04-01T12:26:15.514Z,1366.88
2019-04-01T12:27:13.686Z,1271.25
2019-04-01T12:28:14.248Z,1350.00
2019-04-01T12:29:14.549Z,1057.50
2019-04-01T12:30:13.696Z,1080.00
2019-04-01T12:31:13.683Z,1226.25
2019-04-01T12:32:13.692Z,1248.75
2019-04-01T12:33:13.710Z,1130.63
2019-04-01T12:34:13.673Z,1113.75
2019-04-01T12:35:13.657Z,1383.75
2019-04-01T12:36:13.656Z,2874.38
2019-04-01T12:37:13.659Z,2874.38
2019-04-01T12:38:13.713Z,2874.38
2019-04-01T12:39:13.649Z,2874.38
2019-04-01T12:40:13.640Z,2874.38
2019-04-01T12:41:13.638Z,2874.38
2019-04-01T12:42:13.642Z,2874.38
2019-04-01T12:43:15.251Z,2874.38
2019-04-01T12:44:13.633Z,1344.38
2019-04-01T12:45:13.630Z,1231.88
2019-04-01T12:46:13.626Z,1271.25
2019-04-01T12:47:13.628Z,1012.50
2019-04-01T12:48:13.650Z,939.38
2019-04-01T12:49:13.623Z,590.63
2019-04-01T12:50:13.618Z,461.25
2019-04-01T12:51:13.641Z,1051.88
2019-04-01T12:52:13.609Z,821.25
2019-04-01T12:53:13.615Z,613.13